Terminal Aerodrome Forecast
Issued by NWS

Home | Current Version | Previous Version | Text Only | Print | Product List | Glossary On
Versions: 1 2 3 4 5 6 7 8 9 10 11 12 13 14 15 16 17 18 19 20 21 22 23 24 25 26 27 28
845
FTUS46 KMTR 171133
TAFSFO
TAF
KSFO 171133Z 1712/1818 09003KT 5SM BR BKN008 OVC012
      TEMPO 1713/1717 3SM BR
     FM171900 19004KT 5SM BR BKN015
     FM172100 28005KT 6SM HZ SCT020 BKN200
     FM180400 19004KT P6SM BKN015
     FM180800 15005KT P6SM -RA OVC025=

USA.gov is the U.S. government's official web portal to all federal, state and local government web resources and services.